createdAt,value
2017-08-17T00:00:17.080Z,8.83
2017-08-17T00:02:44.706Z,9.30
2017-08-17T00:05:12.253Z,9.60
2017-08-17T00:07:40.849Z,8.40
2017-08-17T00:10:08.429Z,8.20
2017-08-17T00:12:35.978Z,9.10
2017-08-17T00:15:03.525Z,9.27
2017-08-17T00:17:31.134Z,8.83
2017-08-17T00:19:58.675Z,9.53
2017-08-17T00:22:26.216Z,8.83
2017-08-17T00:24:53.809Z,8.30
2017-08-17T00:27:21.349Z,9.67
2017-08-17T00:29:48.888Z,9.30
2017-08-17T00:32:16.448Z,9.00
2017-08-17T00:34:43.984Z,8.83
2017-08-17T00:37:11.520Z,9.80
2017-08-17T00:39:39.089Z,10.20
2017-08-17T00:42:06.629Z,10.23
2017-08-17T00:44:34.173Z,10.80
2017-08-17T00:47:01.768Z,10.30
2017-08-17T00:49:29.317Z,11.33
2017-08-17T00:51:56.867Z,12.67
2017-08-17T00:54:24.432Z,13.93
2017-08-17T00:56:51.976Z,14.60
2017-08-17T00:59:19.522Z,14.70
2017-08-17T01:01:47.093Z,11.67
2017-08-17T01:04:14.641Z,11.23
2017-08-17T01:06:42.182Z,11.93
2017-08-17T01:09:10.105Z,11.30
2017-08-17T01:11:37.648Z,11.30
2017-08-17T01:14:05.193Z,10.73
2017-08-17T01:16:32.770Z,12.17
2017-08-17T01:19:00.309Z,12.10
2017-08-17T01:21:27.867Z,12.10
2017-08-17T01:23:55.461Z,12.13
2017-08-17T01:26:23.014Z,11.43
2017-08-17T01:28:50.560Z,11.67
2017-08-17T01:31:18.164Z,11.03
2017-08-17T01:33:46.477Z,10.43
2017-08-17T01:36:14.020Z,9.80
2017-08-17T01:38:41.593Z,9.73
2017-08-17T01:41:09.136Z,10.37
2017-08-17T01:43:36.681Z,10.17
2017-08-17T01:46:05.030Z,10.73
2017-08-17T01:48:32.568Z,11.13
2017-08-17T01:51:00.122Z,12.10
2017-08-17T01:53:27.803Z,11.93
2017-08-17T01:55:55.341Z,12.60
2017-08-17T01:58:22.892Z,11.27
2017-08-17T02:00:50.465Z,12.70
2017-08-17T02:03:18.014Z,12.63
2017-08-17T02:05:45.556Z,13.37
2017-08-17T02:08:13.120Z,12.60
2017-08-17T02:10:41.972Z,14.20
2017-08-17T02:13:09.512Z,14.60
2017-08-17T02:15:37.104Z,14.13
2017-08-17T02:18:04.708Z,13.60
2017-08-17T02:20:32.248Z,13.23
2017-08-17T02:22:59.825Z,12.80
2017-08-17T02:25:27.360Z,14.77
2017-08-17T02:27:54.899Z,14.70
2017-08-17T02:30:22.497Z,13.97
2017-08-17T02:32:50.044Z,13.10
2017-08-17T02:35:17.607Z,11.63
2017-08-17T02:37:45.200Z,12.40
2017-08-17T02:40:12.759Z,15.83
2017-08-17T02:42:40.292Z,13.60
2017-08-17T02:45:07.874Z,12.60
2017-08-17T02:47:35.420Z,13.33
2017-08-17T02:50:02.964Z,12.43
2017-08-17T02:52:31.306Z,14.73
2017-08-17T02:54:58.857Z,14.70
2017-08-17T02:57:26.397Z,14.93
2017-08-17T02:59:54.013Z,14.73
2017-08-17T03:02:22.326Z,14.80
2017-08-17T03:04:49.869Z,13.90
2017-08-17T03:07:17.449Z,14.70
2017-08-17T03:09:44.992Z,14.17
2017-08-17T03:12:12.963Z,15.90
2017-08-17T03:14:40.561Z,16.00
2017-08-17T03:17:08.105Z,14.97
2017-08-17T03:19:35.644Z,14.50
2017-08-17T03:22:03.241Z,13.73
2017-08-17T03:24:30.784Z,13.40
2017-08-17T03:26:58.333Z,13.30
2017-08-17T03:29:25.909Z,13.83
2017-08-17T03:31:53.452Z,17.07
2017-08-17T03:34:20.997Z,16.67
2017-08-17T03:36:48.592Z,16.50
2017-08-17T03:39:16.135Z,16.50
2017-08-17T03:41:43.683Z,15.57
2017-08-17T03:44:11.285Z,19.60
2017-08-17T03:46:38.831Z,20.13
2017-08-17T03:49:06.373Z,20.03
2017-08-17T03:51:33.945Z,17.30
2017-08-17T03:54:01.488Z,18.20
2017-08-17T03:56:29.041Z,18.00
2017-08-17T03:58:56.610Z,15.83
2017-08-17T04:01:24.157Z,14.77
2017-08-17T04:03:51.705Z,14.40
2017-08-17T04:06:19.337Z,14.27
2017-08-17T04:08:46.876Z,15.30
2017-08-17T04:11:14.422Z,14.63
2017-08-17T04:13:42.617Z,14.80
2017-08-17T04:16:10.154Z,15.20
2017-08-17T04:18:37.701Z,15.70
2017-08-17T04:21:05.272Z,15.47
2017-08-17T04:23:32.809Z,14.90
2017-08-17T04:26:00.349Z,15.93
2017-08-17T04:28:27.955Z,17.20
2017-08-17T04:30:55.512Z,17.57
2017-08-17T04:33:23.066Z,15.17
2017-08-17T04:35:50.636Z,16.20
2017-08-17T04:38:18.177Z,16.87
2017-08-17T04:40:45.732Z,18.30
2017-08-17T04:43:13.349Z,15.60
2017-08-17T04:45:40.902Z,15.80
2017-08-17T04:48:08.453Z,15.67
2017-08-17T04:50:36.048Z,15.70
2017-08-17T04:53:04.361Z,15.57
2017-08-17T04:55:31.909Z,15.93
2017-08-17T04:58:12.819Z,14.73
2017-08-17T05:00:40.367Z,15.93
2017-08-17T05:03:07.910Z,17.17
2017-08-17T05:05:35.487Z,14.17
2017-08-17T05:08:03.034Z,14.63
2017-08-17T05:10:30.582Z,14.87
2017-08-17T05:12:58.168Z,13.20
2017-08-17T05:15:26.213Z,14.87
2017-08-17T05:17:53.765Z,14.63
2017-08-17T05:20:22.103Z,13.93
2017-08-17T05:22:49.645Z,15.43
2017-08-17T05:25:17.190Z,15.07
2017-08-17T05:27:44.761Z,14.93
2017-08-17T05:30:12.315Z,13.93
2017-08-17T05:32:39.865Z,15.60
2017-08-17T05:35:07.531Z,14.53
2017-08-17T05:37:35.077Z,13.80
2017-08-17T05:40:02.621Z,14.50
2017-08-17T05:42:30.193Z,16.07
2017-08-17T05:44:57.941Z,16.00
2017-08-17T05:47:26.249Z,17.00
2017-08-17T05:49:54.077Z,15.00
2017-08-17T05:52:22.392Z,17.00
2017-08-17T05:54:49.928Z,16.40
2017-08-17T05:57:18.445Z,17.20
2017-08-17T05:59:45.988Z,15.90
2017-08-17T06:02:13.534Z,15.73
2017-08-17T06:04:41.108Z,18.43
2017-08-17T06:07:08.662Z,16.50
2017-08-17T06:09:36.209Z,16.00
2017-08-17T06:12:04.544Z,14.63
2017-08-17T06:14:32.089Z,14.70
2017-08-17T06:17:00.021Z,13.73
2017-08-17T06:19:27.629Z,14.10
2017-08-17T06:21:55.171Z,14.43
2017-08-17T06:24:22.725Z,13.07
2017-08-17T06:26:50.292Z,12.30
2017-08-17T06:29:17.833Z,10.70
2017-08-17T06:31:45.365Z,9.53
2017-08-17T06:34:12.941Z,9.50
2017-08-17T06:36:40.488Z,9.97
2017-08-17T06:39:08.024Z,8.70
2017-08-17T06:41:35.656Z,9.50
2017-08-17T06:44:03.189Z,7.73
2017-08-17T06:46:30.732Z,8.40
2017-08-17T06:48:58.312Z,7.30
2017-08-17T06:51:25.858Z,6.83
2017-08-17T06:53:53.396Z,7.57
2017-08-17T06:56:20.988Z,7.10
2017-08-17T06:58:48.532Z,7.07
2017-08-17T07:01:16.067Z,7.43
2017-08-17T07:03:43.652Z,7.17
2017-08-17T07:06:11.961Z,6.90
2017-08-17T07:08:39.500Z,6.63
2017-08-17T07:11:07.098Z,6.70
2017-08-17T07:13:34.669Z,5.67
2017-08-17T07:16:02.224Z,5.90
2017-08-17T07:18:30.489Z,6.47
2017-08-17T07:20:58.049Z,5.90
2017-08-17T07:23:25.606Z,4.90
2017-08-17T07:25:53.217Z,5.60
2017-08-17T07:28:21.549Z,5.10
2017-08-17T07:30:49.105Z,4.73
2017-08-17T07:33:16.694Z,5.10
2017-08-17T07:35:44.242Z,5.33
2017-08-17T07:38:13.385Z,5.20
2017-08-17T07:40:41.006Z,6.00
2017-08-17T07:43:08.604Z,4.90
2017-08-17T07:45:36.150Z,5.83
2017-08-17T07:48:03.748Z,4.60
2017-08-17T07:50:31.285Z,4.87
2017-08-17T07:52:59.076Z,4.33
2017-08-17T07:55:26.651Z,5.23
2017-08-17T07:57:54.193Z,4.60
2017-08-17T08:00:21.789Z,4.50
2017-08-17T08:02:49.401Z,5.47
2017-08-17T08:05:16.985Z,4.83
2017-08-17T08:07:44.525Z,4.60
2017-08-17T08:10:12.125Z,4.20
2017-08-17T08:12:39.676Z,4.63
2017-08-17T08:15:07.238Z,4.40
2017-08-17T08:17:34.834Z,4.67
2017-08-17T08:20:02.380Z,4.60
2017-08-17T08:22:29.925Z,4.63
2017-08-17T08:24:57.513Z,4.40
2017-08-17T08:27:25.056Z,5.13
2017-08-17T08:29:52.597Z,5.23
2017-08-17T08:32:20.200Z,6.60
2017-08-17T08:34:47.737Z,5.03
2017-08-17T08:37:15.277Z,5.43
2017-08-17T08:39:42.837Z,5.00
2017-08-17T08:42:10.383Z,4.70
2017-08-17T08:44:37.929Z,5.03
2017-08-17T08:47:05.510Z,4.13
2017-08-17T08:49:33.063Z,4.30
2017-08-17T08:52:00.609Z,3.53
2017-08-17T08:54:28.237Z,3.67
2017-08-17T08:56:55.790Z,3.67
2017-08-17T08:59:23.325Z,4.17
2017-08-17T09:01:50.893Z,4.93
2017-08-17T09:04:18.454Z,4.57
2017-08-17T09:06:46.005Z,4.53
2017-08-17T09:09:13.614Z,4.30
2017-08-17T09:11:41.169Z,4.90
2017-08-17T09:14:08.714Z,4.47
2017-08-17T09:16:36.381Z,4.23
2017-08-17T09:19:03.946Z,4.80
2017-08-17T09:21:32.412Z,4.70
2017-08-17T09:23:59.985Z,3.73
2017-08-17T09:26:27.530Z,4.83
2017-08-17T09:28:55.178Z,5.40
2017-08-17T09:31:22.750Z,3.73
2017-08-17T09:33:50.374Z,4.77
2017-08-17T09:36:17.910Z,4.50
2017-08-17T09:38:45.537Z,4.53
2017-08-17T09:41:13.118Z,4.17
2017-08-17T09:43:40.661Z,4.70
2017-08-17T09:46:08.245Z,4.50
2017-08-17T09:48:35.785Z,3.70
2017-08-17T09:51:03.333Z,4.00
2017-08-17T09:53:30.898Z,4.80
2017-08-17T09:55:58.449Z,3.60
2017-08-17T09:58:25.993Z,3.80
2017-08-17T10:00:53.594Z,3.60
2017-08-17T10:03:21.132Z,4.07
2017-08-17T10:05:48.668Z,4.20
2017-08-17T10:08:16.297Z,3.53
2017-08-17T10:10:43.844Z,4.83
2017-08-17T10:13:11.381Z,4.17
2017-08-17T10:15:39.751Z,5.23
2017-08-17T10:18:07.285Z,4.30
2017-08-17T10:20:34.830Z,4.67
2017-08-17T10:23:02.738Z,5.60
2017-08-17T10:25:30.274Z,5.50
2017-08-17T10:27:57.815Z,6.53
2017-08-17T10:30:25.386Z,6.47
2017-08-17T10:32:53.682Z,6.27
2017-08-17T10:35:21.225Z,5.90
2017-08-17T10:37:48.805Z,7.00
2017-08-17T10:40:16.350Z,6.63
2017-08-17T10:42:43.909Z,6.60
2017-08-17T10:45:11.495Z,7.93
2017-08-17T10:47:39.036Z,7.30
2017-08-17T10:50:06.576Z,6.90
2017-08-17T10:52:34.141Z,6.53
2017-08-17T10:55:01.680Z,6.27
2017-08-17T10:57:29.225Z,6.67
2017-08-17T10:59:56.784Z,6.80
2017-08-17T11:02:24.328Z,6.23
2017-08-17T11:04:51.866Z,6.47
2017-08-17T11:07:19.500Z,7.10
2017-08-17T11:09:47.036Z,6.13
2017-08-17T11:12:14.581Z,6.80
2017-08-17T11:14:42.165Z,6.33
2017-08-17T11:17:09.713Z,6.40
2017-08-17T11:19:37.253Z,7.00
2017-08-17T11:22:04.854Z,6.07
2017-08-17T11:24:32.926Z,6.50
2017-08-17T11:27:00.505Z,6.37
2017-08-17T11:29:28.135Z,6.37
2017-08-17T11:31:55.668Z,6.20
2017-08-17T11:34:23.237Z,5.97
2017-08-17T11:36:50.796Z,5.93
2017-08-17T11:39:19.098Z,5.90
2017-08-17T11:41:46.647Z,6.70
2017-08-17T11:44:14.272Z,6.10
2017-08-17T11:46:41.854Z,6.13
2017-08-17T11:49:09.429Z,6.87
2017-08-17T11:51:37.077Z,6.50
2017-08-17T11:54:04.629Z,7.27
2017-08-17T11:56:32.169Z,6.73
2017-08-17T11:58:59.744Z,7.33
2017-08-17T12:01:27.295Z,7.60
2017-08-17T12:03:54.847Z,7.60
2017-08-17T12:06:22.409Z,7.50
2017-08-17T12:08:49.950Z,7.70
2017-08-17T12:11:17.497Z,8.10
2017-08-17T12:13:45.097Z,7.90
2017-08-17T12:16:12.660Z,7.43
2017-08-17T12:18:40.204Z,7.90
2017-08-17T12:21:07.766Z,7.70
2017-08-17T12:23:35.395Z,6.53
2017-08-17T12:26:03.365Z,7.27
2017-08-17T12:28:30.973Z,8.27
2017-08-17T12:30:58.518Z,7.50
2017-08-17T12:33:26.056Z,6.97
2017-08-17T12:35:53.669Z,7.60
2017-08-17T12:38:21.345Z,7.07
2017-08-17T12:40:48.893Z,7.10
2017-08-17T12:43:16.521Z,6.80
2017-08-17T12:45:44.128Z,7.53
2017-08-17T12:48:11.668Z,7.63
2017-08-17T12:50:40.009Z,7.87
2017-08-17T12:53:07.542Z,7.03
2017-08-17T12:55:35.084Z,7.13
2017-08-17T12:58:02.688Z,7.00
2017-08-17T13:00:30.229Z,6.97
2017-08-17T13:02:57.802Z,6.70
2017-08-17T13:05:25.370Z,6.73
2017-08-17T13:07:52.909Z,6.60
2017-08-17T13:10:20.526Z,7.23
2017-08-17T13:12:48.142Z,6.40
2017-08-17T13:15:15.687Z,7.27
2017-08-17T13:17:43.228Z,7.57
2017-08-17T13:20:10.823Z,6.83
2017-08-17T13:22:38.372Z,7.80
2017-08-17T13:25:05.909Z,7.00
2017-08-17T13:27:33.765Z,6.50
2017-08-17T13:30:01.456Z,6.50
2017-08-17T13:32:29.083Z,6.83
2017-08-17T13:34:56.706Z,7.30
2017-08-17T13:37:24.253Z,7.73
2017-08-17T13:39:51.821Z,7.20
2017-08-17T13:42:19.412Z,6.70
2017-08-17T13:44:47.716Z,6.93
2017-08-17T13:47:15.355Z,6.93
2017-08-17T13:49:42.927Z,6.57
2017-08-17T13:52:10.460Z,7.03
2017-08-17T13:54:37.996Z,6.60
2017-08-17T13:57:05.561Z,8.17
2017-08-17T13:59:33.105Z,6.17
2017-08-17T14:02:00.644Z,7.20
2017-08-17T14:04:28.244Z,6.60
2017-08-17T14:06:55.785Z,7.20
2017-08-17T14:09:23.681Z,6.70
2017-08-17T14:11:51.246Z,6.80
2017-08-17T14:14:18.784Z,7.13
2017-08-17T14:16:46.324Z,6.60
2017-08-17T14:19:13.910Z,7.20
2017-08-17T14:21:41.448Z,6.43
2017-08-17T14:24:08.987Z,6.80
2017-08-17T14:26:36.650Z,7.60
2017-08-17T14:29:04.704Z,7.37
2017-08-17T14:31:32.253Z,6.63
2017-08-17T14:34:00.580Z,6.70
2017-08-17T14:36:28.132Z,7.30
2017-08-17T14:38:55.673Z,6.70
2017-08-17T14:41:23.281Z,7.57
2017-08-17T14:43:50.984Z,7.60
2017-08-17T14:46:18.520Z,6.20
2017-08-17T14:48:46.849Z,6.50
2017-08-17T14:51:14.389Z,6.90
2017-08-17T14:53:41.939Z,8.93
2017-08-17T14:56:09.496Z,6.80
2017-08-17T14:58:37.068Z,8.80
2017-08-17T15:01:04.631Z,7.47
2017-08-17T15:03:32.211Z,8.77
2017-08-17T15:05:59.752Z,6.70
2017-08-17T15:08:27.348Z,7.10
2017-08-17T15:10:54.940Z,8.00
2017-08-17T15:13:22.481Z,6.80
2017-08-17T15:15:50.018Z,7.23
2017-08-17T15:18:17.585Z,7.10
2017-08-17T15:20:45.120Z,7.93
2017-08-17T15:23:12.874Z,7.37
2017-08-17T15:25:40.469Z,6.93
2017-08-17T15:28:08.017Z,7.67
2017-08-17T15:30:36.149Z,7.20
2017-08-17T15:33:04.544Z,7.00
2017-08-17T15:35:32.096Z,7.07
2017-08-17T15:37:59.641Z,7.03
2017-08-17T15:40:27.221Z,7.07
2017-08-17T15:42:54.765Z,6.80
2017-08-17T15:45:22.310Z,7.87
2017-08-17T15:47:49.937Z,7.03
2017-08-17T15:50:17.487Z,7.07
2017-08-17T15:52:45.034Z,6.37
2017-08-17T15:55:12.648Z,6.83
2017-08-17T15:57:40.209Z,6.00
2017-08-17T16:00:07.740Z,6.13
2017-08-17T16:02:35.311Z,6.00
2017-08-17T16:05:02.885Z,6.77
2017-08-17T16:07:30.420Z,6.40
2017-08-17T16:09:57.984Z,6.77
2017-08-17T16:12:25.528Z,8.43
2017-08-17T16:14:53.083Z,7.60
2017-08-17T16:17:20.677Z,8.23
2017-08-17T16:19:48.221Z,9.07
2017-08-17T16:22:15.771Z,7.80
2017-08-17T16:24:43.333Z,7.20
2017-08-17T16:27:10.888Z,7.40
2017-08-17T16:29:38.428Z,8.50
2017-08-17T16:32:06.505Z,8.67
2017-08-17T16:34:34.053Z,8.50
2017-08-17T16:37:01.601Z,10.70
2017-08-17T16:39:29.205Z,8.47
2017-08-17T16:41:56.749Z,9.80
2017-08-17T16:44:24.329Z,11.17
2017-08-17T16:46:51.900Z,9.30
2017-08-17T16:49:19.450Z,9.80
2017-08-17T16:51:47.011Z,9.50
2017-08-17T16:54:14.638Z,10.30
2017-08-17T16:56:42.180Z,9.93
2017-08-17T16:59:09.730Z,9.20
2017-08-17T17:01:37.366Z,9.60
2017-08-17T17:04:04.917Z,9.43
2017-08-17T17:06:32.461Z,9.63
2017-08-17T17:09:00.056Z,8.70
2017-08-17T17:11:27.600Z,9.77
2017-08-17T17:13:55.145Z,10.47
2017-08-17T17:16:23.473Z,9.73
2017-08-17T17:18:51.027Z,10.90
2017-08-17T17:21:18.580Z,9.97
2017-08-17T17:23:46.177Z,10.10
2017-08-17T17:26:13.741Z,11.20
2017-08-17T17:28:41.287Z,11.03
2017-08-17T17:31:08.865Z,10.60
2017-08-17T17:33:37.030Z,9.53
2017-08-17T17:36:04.580Z,11.57
2017-08-17T17:38:32.158Z,11.00
2017-08-17T17:40:59.812Z,10.63
2017-08-17T17:43:27.372Z,10.67
2017-08-17T17:45:54.968Z,10.70
2017-08-17T17:48:22.516Z,10.80
2017-08-17T17:50:50.061Z,10.40
2017-08-17T17:53:19.758Z,10.20
2017-08-17T17:55:47.307Z,9.93
2017-08-17T17:58:14.854Z,11.27
2017-08-17T18:00:42.479Z,10.70
2017-08-17T18:03:39.007Z,10.70
2017-08-17T18:06:06.617Z,10.63
2017-08-17T18:08:34.162Z,9.53
2017-08-17T18:11:01.709Z,12.30
2017-08-17T18:13:29.304Z,13.30
2017-08-17T18:15:56.861Z,12.10
2017-08-17T18:18:24.421Z,14.57
2017-08-17T18:20:52.006Z,11.50
2017-08-17T18:23:19.557Z,11.85
2017-08-17T18:25:47.104Z,11.63
2017-08-17T18:28:16.493Z,11.65
2017-08-17T18:30:44.056Z,10.73
2017-08-17T18:33:11.605Z,11.40
2017-08-17T18:35:39.641Z,11.03
2017-08-17T18:38:07.201Z,12.07
2017-08-17T18:40:34.749Z,10.37
2017-08-17T18:43:02.345Z,13.10
2017-08-17T18:45:29.902Z,13.62
2017-08-17T18:47:57.644Z,12.73
2017-08-17T18:50:25.577Z,13.70
2017-08-17T18:52:53.119Z,14.80
2017-08-17T18:55:20.665Z,14.60
2017-08-17T18:57:48.249Z,15.67
2017-08-17T19:00:16.641Z,15.28
2017-08-17T19:02:44.210Z,14.73
2017-08-17T19:05:11.817Z,15.90
2017-08-17T19:07:39.374Z,15.60
2017-08-17T19:10:06.925Z,16.60
2017-08-17T19:12:50.409Z,16.67
2017-08-17T19:15:17.982Z,16.13
2017-08-17T19:17:45.541Z,16.93
2017-08-17T19:20:14.868Z,17.62
2017-08-17T19:22:42.422Z,18.30
2017-08-17T19:25:09.983Z,20.43
2017-08-17T19:27:37.558Z,20.20
2017-08-17T19:30:05.232Z,19.80
2017-08-17T19:32:32.825Z,21.17
2017-08-17T19:35:00.449Z,18.47
2017-08-17T19:37:28.417Z,19.80
2017-08-17T19:39:55.974Z,19.20
2017-08-17T19:42:23.568Z,16.77
2017-08-17T19:44:51.150Z,17.93
2017-08-17T19:47:18.697Z,16.03
2017-08-17T19:49:47.036Z,18.53
2017-08-17T19:52:15.574Z,17.43
2017-08-17T19:54:43.129Z,15.80
2017-08-17T19:57:10.756Z,15.87
2017-08-17T19:59:38.312Z,15.90
2017-08-17T20:02:05.878Z,16.33
2017-08-17T20:04:33.457Z,14.82
2017-08-17T20:07:01.022Z,15.00
2017-08-17T20:09:28.581Z,17.00
2017-08-17T20:11:56.962Z,17.10
2017-08-17T20:14:25.300Z,15.60
2017-08-17T20:16:54.380Z,15.83
2017-08-17T20:19:21.993Z,16.27
2017-08-17T20:21:49.585Z,16.07
2017-08-17T20:24:19.125Z,15.90
2017-08-17T20:26:46.722Z,16.80
2017-08-17T20:29:26.365Z,17.17
2017-08-17T20:34:48.085Z,18.50
2017-08-17T20:37:17.266Z,18.10
2017-08-17T20:39:45.309Z,19.03
2017-08-17T20:42:14.593Z,17.50
2017-08-17T20:44:44.837Z,18.30
2017-08-17T20:47:12.410Z,18.90
2017-08-17T20:49:44.774Z,18.10
2017-08-17T20:52:13.255Z,19.53
2017-08-17T20:54:41.582Z,18.30
2017-08-17T20:57:09.149Z,16.80
2017-08-17T20:59:36.702Z,17.20
2017-08-17T21:02:04.288Z,16.07
2017-08-17T21:04:31.841Z,16.00
2017-08-17T21:06:59.402Z,16.60
2017-08-17T21:09:27.753Z,16.00
2017-08-17T21:11:57.970Z,19.10
2017-08-17T21:14:25.525Z,15.23
2017-08-17T21:17:09.236Z,17.87
2017-08-17T21:19:36.866Z,17.07
2017-08-17T21:22:06.973Z,16.33
2017-08-17T21:24:35.141Z,18.30
2017-08-17T21:27:03.370Z,17.90
2017-08-17T21:29:34.153Z,15.75
2017-08-17T21:32:02.510Z,16.23
2017-08-17T21:34:30.085Z,16.40
2017-08-17T21:37:05.658Z,16.07
2017-08-17T21:39:33.212Z,15.40
2017-08-17T21:42:02.126Z,15.03
2017-08-17T21:44:29.705Z,15.32
2017-08-17T21:46:57.263Z,14.23
2017-08-17T21:49:24.817Z,14.37
2017-08-17T21:51:52.414Z,14.73
2017-08-17T21:54:19.982Z,14.32
2017-08-17T21:56:47.540Z,13.90
2017-08-17T21:59:16.540Z,14.10
2017-08-17T22:01:44.110Z,16.10
2017-08-17T22:04:11.672Z,14.10
2017-08-17T22:06:39.253Z,15.10
2017-08-17T22:09:06.822Z,15.53
2017-08-17T22:11:34.381Z,15.47
2017-08-17T22:14:01.968Z,15.53
2017-08-17T22:16:29.532Z,14.13
2017-08-17T22:18:57.100Z,14.00
2017-08-17T22:21:24.773Z,14.50
2017-08-17T22:23:52.342Z,14.50
2017-08-17T22:26:19.913Z,14.27
2017-08-17T22:28:47.522Z,14.60
2017-08-17T22:31:16.491Z,14.02
2017-08-17T22:33:44.037Z,13.27
2017-08-17T22:36:12.385Z,13.83
2017-08-17T22:38:39.932Z,13.20
2017-08-17T22:41:07.759Z,14.02
2017-08-17T22:43:35.692Z,15.87
2017-08-17T22:46:03.245Z,13.33
2017-08-17T22:48:30.800Z,16.20
2017-08-17T22:50:58.381Z,16.30
2017-08-17T22:53:26.705Z,15.50
2017-08-17T22:55:54.261Z,16.87
2017-08-17T22:58:21.858Z,14.23
2017-08-17T23:00:49.441Z,15.63
2017-08-17T23:03:17.769Z,15.63
2017-08-17T23:05:45.540Z,14.47
2017-08-17T23:08:25.189Z,14.18
2017-08-17T23:13:32.537Z,15.30
2017-08-17T23:16:00.857Z,15.30
2017-08-17T23:18:28.412Z,15.90
2017-08-17T23:20:56.182Z,15.50
2017-08-17T23:23:23.735Z,17.47
2017-08-17T23:25:51.289Z,14.97
2017-08-17T23:28:18.903Z,16.50
2017-08-17T23:30:46.453Z,14.38
2017-08-17T23:33:25.279Z,15.20
2017-08-17T23:38:51.240Z,14.87
2017-08-17T23:41:18.790Z,15.60
2017-08-17T23:43:46.760Z,15.17
2017-08-17T23:46:26.205Z,14.95
2017-08-17T23:54:38.806Z,16.43
2017-08-17T23:57:06.368Z,14.60
2017-08-17T23:59:33.934Z,16.77
